sensor_id;sensor_type;location;lat;lon;timestamp;P1;durP1;ratioP1;P2;durP2;ratioP2
75021;SDS011;63583;49.976;20.182;2022-12-07T00:01:20;4.35;;;2.47;;
75021;SDS011;63583;49.976;20.182;2022-12-07T00:03:49;4.20;;;2.28;;
75021;SDS011;63583;49.976;20.182;2022-12-07T00:06:16;4.75;;;2.20;;
75021;SDS011;63583;49.976;20.182;2022-12-07T00:08:43;2.92;;;1.67;;
75021;SDS011;63583;49.976;20.182;2022-12-07T00:11:11;2.85;;;1.65;;
75021;SDS011;63583;49.976;20.182;2022-12-07T00:13:39;2.75;;;1.75;;
75021;SDS011;63583;49.976;20.182;2022-12-07T00:16:09;5.03;;;1.75;;
75021;SDS011;63583;49.976;20.182;2022-12-07T00:18:40;4.88;;;1.88;;
75021;SDS011;63583;49.976;20.182;2022-12-07T00:23:35;4.07;;;1.92;;
75021;SDS011;63583;49.976;20.182;2022-12-07T00:26:08;3.65;;;1.77;;
75021;SDS011;63583;49.976;20.182;2022-12-07T00:28:39;3.85;;;2.08;;
75021;SDS011;63583;49.976;20.182;2022-12-07T00:31:05;5.10;;;2.50;;
75021;SDS011;63583;49.976;20.182;2022-12-07T00:33:33;5.35;;;2.60;;
75021;SDS011;63583;49.976;20.182;2022-12-07T00:35:59;3.60;;;2.13;;
75021;SDS011;63583;49.976;20.182;2022-12-07T00:38:27;3.47;;;1.92;;
75021;SDS011;63583;49.976;20.182;2022-12-07T00:40:58;6.20;;;3.17;;
75021;SDS011;63583;49.976;20.182;2022-12-07T00:43:25;4.15;;;2.40;;
75021;SDS011;63583;49.976;20.182;2022-12-07T00:46:12;3.00;;;2.53;;
75021;SDS011;63583;49.976;20.182;2022-12-07T00:48:38;4.30;;;2.65;;
75021;SDS011;63583;49.976;20.182;2022-12-07T00:51:04;5.50;;;2.38;;
75021;SDS011;63583;49.976;20.182;2022-12-07T00:53:31;7.00;;;2.97;;
75021;SDS011;63583;49.976;20.182;2022-12-07T00:56:06;3.80;;;2.50;;
75021;SDS011;63583;49.976;20.182;2022-12-07T00:58:34;4.90;;;2.63;;
75021;SDS011;63583;49.976;20.182;2022-12-07T01:01:00;4.25;;;2.63;;
75021;SDS011;63583;49.976;20.182;2022-12-07T01:03:27;4.90;;;2.65;;
75021;SDS011;63583;49.976;20.182;2022-12-07T01:06:17;4.35;;;2.20;;
75021;SDS011;63583;49.976;20.182;2022-12-07T01:08:44;5.88;;;4.03;;
75021;SDS011;63583;49.976;20.182;2022-12-07T01:11:12;4.07;;;2.85;;
75021;SDS011;63583;49.976;20.182;2022-12-07T01:13:40;3.53;;;1.83;;
75021;SDS011;63583;49.976;20.182;2022-12-07T01:16:07;4.22;;;1.95;;
75021;SDS011;63583;49.976;20.182;2022-12-07T01:18:35;5.88;;;2.40;;
75021;SDS011;63583;49.976;20.182;2022-12-07T01:21:02;4.97;;;2.40;;
75021;SDS011;63583;49.976;20.182;2022-12-07T01:23:29;4.07;;;2.85;;
75021;SDS011;63583;49.976;20.182;2022-12-07T01:25:59;7.93;;;2.90;;
75021;SDS011;63583;49.976;20.182;2022-12-07T01:28:26;6.57;;;3.40;;
75021;SDS011;63583;49.976;20.182;2022-12-07T01:30:59;4.82;;;2.50;;
75021;SDS011;63583;49.976;20.182;2022-12-07T01:33:49;3.92;;;3.55;;
75021;SDS011;63583;49.976;20.182;2022-12-07T01:38:44;3.75;;;2.42;;
75021;SDS011;63583;49.976;20.182;2022-12-07T01:41:11;5.05;;;2.60;;
75021;SDS011;63583;49.976;20.182;2022-12-07T01:44:06;4.72;;;2.58;;
75021;SDS011;63583;49.976;20.182;2022-12-07T01:46:32;4.50;;;2.70;;
75021;SDS011;63583;49.976;20.182;2022-12-07T01:48:58;5.55;;;2.67;;
75021;SDS011;63583;49.976;20.182;2022-12-07T01:51:24;5.60;;;2.95;;
75021;SDS011;63583;49.976;20.182;2022-12-07T01:53:51;7.00;;;3.05;;
75021;SDS011;63583;49.976;20.182;2022-12-07T01:56:17;4.75;;;1.98;;
75021;SDS011;63583;49.976;20.182;2022-12-07T01:58:46;4.93;;;2.97;;
75021;SDS011;63583;49.976;20.182;2022-12-07T02:01:13;4.78;;;2.50;;
75021;SDS011;63583;49.976;20.182;2022-12-07T02:03:40;6.20;;;3.60;;
75021;SDS011;63583;49.976;20.182;2022-12-07T02:06:08;5.70;;;3.05;;
75021;SDS011;63583;49.976;20.182;2022-12-07T02:08:37;8.25;;;3.20;;
75021;SDS011;63583;49.976;20.182;2022-12-07T02:11:03;4.72;;;3.38;;
75021;SDS011;63583;49.976;20.182;2022-12-07T02:13:30;7.15;;;3.53;;
75021;SDS011;63583;49.976;20.182;2022-12-07T02:21:58;5.28;;;3.28;;
75021;SDS011;63583;49.976;20.182;2022-12-07T02:24:44;4.03;;;2.38;;
75021;SDS011;63583;49.976;20.182;2022-12-07T02:32:27;4.97;;;3.13;;
75021;SDS011;63583;49.976;20.182;2022-12-07T02:35:05;4.63;;;2.80;;
75021;SDS011;63583;49.976;20.182;2022-12-07T02:37:42;5.97;;;3.15;;
75021;SDS011;63583;49.976;20.182;2022-12-07T02:43:08;6.28;;;2.65;;
75021;SDS011;63583;49.976;20.182;2022-12-07T02:45:39;4.40;;;3.03;;
75021;SDS011;63583;49.976;20.182;2022-12-07T02:48:06;4.95;;;2.22;;
75021;SDS011;63583;49.976;20.182;2022-12-07T02:50:35;3.50;;;2.20;;
75021;SDS011;63583;49.976;20.182;2022-12-07T02:53:01;6.20;;;2.42;;
75021;SDS011;63583;49.976;20.182;2022-12-07T02:55:37;4.47;;;2.33;;
75021;SDS011;63583;49.976;20.182;2022-12-07T02:58:12;2.92;;;1.88;;
75021;SDS011;63583;49.976;20.182;2022-12-07T03:01:01;2.85;;;1.75;;
75021;SDS011;63583;49.976;20.182;2022-12-07T03:03:47;1.75;;;1.02;;
75021;SDS011;63583;49.976;20.182;2022-12-07T03:06:20;2.55;;;0.85;;
75021;SDS011;63583;49.976;20.182;2022-12-07T03:09:04;3.13;;;1.67;;
75021;SDS011;63583;49.976;20.182;2022-12-07T03:11:49;2.90;;;1.73;;
75021;SDS011;63583;49.976;20.182;2022-12-07T03:14:24;1.98;;;1.42;;
75021;SDS011;63583;49.976;20.182;2022-12-07T03:17:24;3.35;;;1.60;;
75021;SDS011;63583;49.976;20.182;2022-12-07T03:19:53;5.40;;;1.77;;
75021;SDS011;63583;49.976;20.182;2022-12-07T03:22:23;2.50;;;1.40;;
75021;SDS011;63583;49.976;20.182;2022-12-07T03:24:54;5.00;;;1.75;;
75021;SDS011;63583;49.976;20.182;2022-12-07T03:27:33;3.42;;;1.50;;
75021;SDS011;63583;49.976;20.182;2022-12-07T03:30:02;2.42;;;1.45;;
75021;SDS011;63583;49.976;20.182;2022-12-07T03:38:02;2.35;;;1.60;;
75021;SDS011;63583;49.976;20.182;2022-12-07T03:40:46;3.35;;;1.48;;
75021;SDS011;63583;49.976;20.182;2022-12-07T03:43:16;3.53;;;1.60;;
75021;SDS011;63583;49.976;20.182;2022-12-07T03:45:44;5.72;;;2.20;;
75021;SDS011;63583;49.976;20.182;2022-12-07T03:53:58;5.90;;;1.60;;
75021;SDS011;63583;49.976;20.182;2022-12-07T03:56:44;3.45;;;1.67;;
75021;SDS011;63583;49.976;20.182;2022-12-07T03:59:11;6.45;;;2.60;;
75021;SDS011;63583;49.976;20.182;2022-12-07T04:01:40;5.50;;;2.65;;
75021;SDS011;63583;49.976;20.182;2022-12-07T04:04:07;8.13;;;2.97;;
75021;SDS011;63583;49.976;20.182;2022-12-07T04:06:33;4.07;;;2.58;;
75021;SDS011;63583;49.976;20.182;2022-12-07T04:08:59;4.03;;;1.88;;
75021;SDS011;63583;49.976;20.182;2022-12-07T04:11:24;7.68;;;4.28;;
75021;SDS011;63583;49.976;20.182;2022-12-07T04:13:50;3.15;;;2.05;;
75021;SDS011;63583;49.976;20.182;2022-12-07T04:16:39;3.33;;;2.17;;
75021;SDS011;63583;49.976;20.182;2022-12-07T04:19:05;3.25;;;1.88;;
75021;SDS011;63583;49.976;20.182;2022-12-07T04:21:31;2.65;;;1.98;;
75021;SDS011;63583;49.976;20.182;2022-12-07T04:23:57;3.08;;;1.58;;
75021;SDS011;63583;49.976;20.182;2022-12-07T04:26:22;5.55;;;2.92;;
75021;SDS011;63583;49.976;20.182;2022-12-07T04:28:48;7.82;;;3.33;;
75021;SDS011;63583;49.976;20.182;2022-12-07T04:31:14;4.82;;;3.38;;
75021;SDS011;63583;49.976;20.182;2022-12-07T04:33:39;10.15;;;3.75;;
75021;SDS011;63583;49.976;20.182;2022-12-07T04:36:05;5.13;;;2.83;;
75021;SDS011;63583;49.976;20.182;2022-12-07T04:38:31;7.05;;;3.00;;
75021;SDS011;63583;49.976;20.182;2022-12-07T04:40:57;4.28;;;2.28;;
75021;SDS011;63583;49.976;20.182;2022-12-07T04:43:23;3.63;;;2.15;;
75021;SDS011;63583;49.976;20.182;2022-12-07T04:45:48;3.45;;;1.75;;
75021;SDS011;63583;49.976;20.182;2022-12-07T04:48:14;2.95;;;1.58;;
75021;SDS011;63583;49.976;20.182;2022-12-07T04:50:40;3.05;;;1.45;;
75021;SDS011;63583;49.976;20.182;2022-12-07T04:53:06;3.50;;;1.75;;
75021;SDS011;63583;49.976;20.182;2022-12-07T04:55:31;2.72;;;1.27;;
75021;SDS011;63583;49.976;20.182;2022-12-07T04:57:57;4.55;;;2.10;;
75021;SDS011;63583;49.976;20.182;2022-12-07T05:00:23;3.13;;;1.80;;
75021;SDS011;63583;49.976;20.182;2022-12-07T05:02:49;1.27;;;0.95;;
75021;SDS011;63583;49.976;20.182;2022-12-07T05:05:14;2.53;;;1.27;;
75021;SDS011;63583;49.976;20.182;2022-12-07T05:07:40;2.30;;;1.48;;
75021;SDS011;63583;49.976;20.182;2022-12-07T05:10:06;2.60;;;1.30;;
75021;SDS011;63583;49.976;20.182;2022-12-07T05:12:32;3.90;;;1.75;;
75021;SDS011;63583;49.976;20.182;2022-12-07T05:14:58;2.15;;;1.20;;
75021;SDS011;63583;49.976;20.182;2022-12-07T05:17:24;1.75;;;1.35;;
75021;SDS011;63583;49.976;20.182;2022-12-07T05:19:49;2.05;;;1.40;;
75021;SDS011;63583;49.976;20.182;2022-12-07T05:22:15;4.93;;;1.52;;
75021;SDS011;63583;49.976;20.182;2022-12-07T05:24:41;2.95;;;1.50;;
75021;SDS011;63583;49.976;20.182;2022-12-07T05:27:07;3.70;;;1.63;;
75021;SDS011;63583;49.976;20.182;2022-12-07T05:29:32;0.95;;;0.75;;
75021;SDS011;63583;49.976;20.182;2022-12-07T05:31:58;2.95;;;1.67;;
75021;SDS011;63583;49.976;20.182;2022-12-07T05:34:24;2.38;;;1.80;;
75021;SDS011;63583;49.976;20.182;2022-12-07T05:36:50;2.13;;;1.45;;
75021;SDS011;63583;49.976;20.182;2022-12-07T05:39:15;4.70;;;2.13;;
75021;SDS011;63583;49.976;20.182;2022-12-07T05:41:41;4.88;;;1.88;;
75021;SDS011;63583;49.976;20.182;2022-12-07T05:44:25;6.30;;;3.05;;
75021;SDS011;63583;49.976;20.182;2022-12-07T05:46:51;4.85;;;1.73;;
75021;SDS011;63583;49.976;20.182;2022-12-07T05:49:17;3.25;;;1.63;;
75021;SDS011;63583;49.976;20.182;2022-12-07T05:51:43;3.35;;;1.95;;
75021;SDS011;63583;49.976;20.182;2022-12-07T05:54:09;5.10;;;2.00;;
75021;SDS011;63583;49.976;20.182;2022-12-07T05:56:34;5.40;;;2.70;;
75021;SDS011;63583;49.976;20.182;2022-12-07T05:59:00;3.00;;;2.53;;
75021;SDS011;63583;49.976;20.182;2022-12-07T06:01:44;4.00;;;2.17;;
75021;SDS011;63583;49.976;20.182;2022-12-07T06:04:10;5.60;;;2.28;;
75021;SDS011;63583;49.976;20.182;2022-12-07T06:06:36;5.07;;;2.15;;
75021;SDS011;63583;49.976;20.182;2022-12-07T06:09:02;5.07;;;3.30;;
75021;SDS011;63583;49.976;20.182;2022-12-07T06:11:28;4.20;;;2.45;;
75021;SDS011;63583;49.976;20.182;2022-12-07T06:14:12;4.38;;;1.55;;
75021;SDS011;63583;49.976;20.182;2022-12-07T06:16:38;5.53;;;3.17;;
75021;SDS011;63583;49.976;20.182;2022-12-07T06:19:04;3.90;;;2.40;;
75021;SDS011;63583;49.976;20.182;2022-12-07T06:21:31;4.53;;;2.83;;
75021;SDS011;63583;49.976;20.182;2022-12-07T06:23:57;3.35;;;2.50;;
75021;SDS011;63583;49.976;20.182;2022-12-07T06:26:22;6.15;;;2.95;;
75021;SDS011;63583;49.976;20.182;2022-12-07T06:28:48;4.00;;;2.25;;
75021;SDS011;63583;49.976;20.182;2022-12-07T06:31:14;5.55;;;2.45;;
75021;SDS011;63583;49.976;20.182;2022-12-07T06:33:40;3.58;;;2.78;;
75021;SDS011;63583;49.976;20.182;2022-12-07T06:36:07;4.85;;;2.95;;
75021;SDS011;63583;49.976;20.182;2022-12-07T06:38:33;5.80;;;2.45;;
75021;SDS011;63583;49.976;20.182;2022-12-07T06:40:59;4.20;;;2.17;;
75021;SDS011;63583;49.976;20.182;2022-12-07T06:43:24;3.80;;;2.00;;
75021;SDS011;63583;49.976;20.182;2022-12-07T06:45:50;3.17;;;1.63;;
75021;SDS011;63583;49.976;20.182;2022-12-07T06:48:16;2.95;;;1.90;;
75021;SDS011;63583;49.976;20.182;2022-12-07T06:50:44;3.80;;;1.73;;
75021;SDS011;63583;49.976;20.182;2022-12-07T06:53:10;3.03;;;2.15;;
75021;SDS011;63583;49.976;20.182;2022-12-07T06:55:36;3.58;;;1.70;;
75021;SDS011;63583;49.976;20.182;2022-12-07T06:58:02;3.15;;;1.50;;
75021;SDS011;63583;49.976;20.182;2022-12-07T07:00:28;3.17;;;1.98;;
75021;SDS011;63583;49.976;20.182;2022-12-07T07:02:54;1.50;;;1.08;;
75021;SDS011;63583;49.976;20.182;2022-12-07T07:05:20;1.58;;;1.05;;
75021;SDS011;63583;49.976;20.182;2022-12-07T07:07:49;2.92;;;1.67;;
75021;SDS011;63583;49.976;20.182;2022-12-07T07:10:16;3.10;;;2.47;;
75021;SDS011;63583;49.976;20.182;2022-12-07T07:12:41;3.90;;;2.00;;
75021;SDS011;63583;49.976;20.182;2022-12-07T07:15:07;3.30;;;2.13;;
75021;SDS011;63583;49.976;20.182;2022-12-07T07:17:34;3.55;;;1.48;;
75021;SDS011;63583;49.976;20.182;2022-12-07T07:19:59;2.65;;;1.63;;
75021;SDS011;63583;49.976;20.182;2022-12-07T07:22:25;3.72;;;1.95;;
75021;SDS011;63583;49.976;20.182;2022-12-07T07:24:51;4.22;;;2.35;;
75021;SDS011;63583;49.976;20.182;2022-12-07T07:27:17;4.35;;;1.65;;
75021;SDS011;63583;49.976;20.182;2022-12-07T07:29:43;2.28;;;1.33;;
75021;SDS011;63583;49.976;20.182;2022-12-07T07:32:08;3.67;;;1.77;;
75021;SDS011;63583;49.976;20.182;2022-12-07T07:34:34;4.90;;;2.88;;
75021;SDS011;63583;49.976;20.182;2022-12-07T07:37:00;5.93;;;2.25;;
75021;SDS011;63583;49.976;20.182;2022-12-07T07:39:26;2.58;;;1.63;;
75021;SDS011;63583;49.976;20.182;2022-12-07T07:41:51;1.85;;;1.27;;
75021;SDS011;63583;49.976;20.182;2022-12-07T07:44:17;3.17;;;1.77;;
75021;SDS011;63583;49.976;20.182;2022-12-07T07:46:43;2.03;;;1.52;;
75021;SDS011;63583;49.976;20.182;2022-12-07T07:49:09;4.65;;;2.35;;
75021;SDS011;63583;49.976;20.182;2022-12-07T07:51:35;2.67;;;2.00;;
75021;SDS011;63583;49.976;20.182;2022-12-07T07:54:02;2.83;;;1.85;;
75021;SDS011;63583;49.976;20.182;2022-12-07T07:56:28;4.78;;;2.50;;
75021;SDS011;63583;49.976;20.182;2022-12-07T07:58:54;3.85;;;2.75;;
75021;SDS011;63583;49.976;20.182;2022-12-07T08:01:20;5.20;;;2.65;;
75021;SDS011;63583;49.976;20.182;2022-12-07T08:03:46;6.53;;;3.35;;
75021;SDS011;63583;49.976;20.182;2022-12-07T08:06:12;6.97;;;3.42;;
75021;SDS011;63583;49.976;20.182;2022-12-07T08:08:38;5.13;;;2.53;;
75021;SDS011;63583;49.976;20.182;2022-12-07T08:11:07;2.92;;;2.17;;
75021;SDS011;63583;49.976;20.182;2022-12-07T08:13:34;4.68;;;2.47;;
75021;SDS011;63583;49.976;20.182;2022-12-07T08:16:08;6.72;;;3.45;;
75021;SDS011;63583;49.976;20.182;2022-12-07T08:18:36;4.68;;;3.35;;
75021;SDS011;63583;49.976;20.182;2022-12-07T08:21:03;3.22;;;2.28;;
75021;SDS011;63583;49.976;20.182;2022-12-07T08:23:29;4.57;;;2.38;;
75021;SDS011;63583;49.976;20.182;2022-12-07T08:25:59;8.07;;;4.13;;
75021;SDS011;63583;49.976;20.182;2022-12-07T08:28:37;6.30;;;3.30;;
75021;SDS011;63583;49.976;20.182;2022-12-07T08:31:08;4.93;;;2.63;;
75021;SDS011;63583;49.976;20.182;2022-12-07T08:33:40;3.55;;;1.83;;
75021;SDS011;63583;49.976;20.182;2022-12-07T08:36:07;2.63;;;1.50;;
75021;SDS011;63583;49.976;20.182;2022-12-07T08:38:36;2.90;;;2.25;;
75021;SDS011;63583;49.976;20.182;2022-12-07T08:41:02;4.45;;;2.30;;
75021;SDS011;63583;49.976;20.182;2022-12-07T08:43:29;6.13;;;3.30;;
75021;SDS011;63583;49.976;20.182;2022-12-07T08:48:41;2.63;;;1.83;;
75021;SDS011;63583;49.976;20.182;2022-12-07T08:51:11;2.97;;;2.05;;
75021;SDS011;63583;49.976;20.182;2022-12-07T08:53:37;2.47;;;2.03;;
75021;SDS011;63583;49.976;20.182;2022-12-07T08:56:04;7.60;;;3.70;;
75021;SDS011;63583;49.976;20.182;2022-12-07T08:58:31;2.40;;;1.38;;
75021;SDS011;63583;49.976;20.182;2022-12-07T09:00:58;5.72;;;2.28;;
75021;SDS011;63583;49.976;20.182;2022-12-07T09:03:24;4.57;;;2.63;;
75021;SDS011;63583;49.976;20.182;2022-12-07T09:05:50;5.40;;;2.47;;
75021;SDS011;63583;49.976;20.182;2022-12-07T09:08:16;3.35;;;1.42;;
75021;SDS011;63583;49.976;20.182;2022-12-07T09:10:41;5.38;;;1.70;;
75021;SDS011;63583;49.976;20.182;2022-12-07T09:13:07;4.82;;;2.10;;
75021;SDS011;63583;49.976;20.182;2022-12-07T09:15:33;2.13;;;1.55;;
75021;SDS011;63583;49.976;20.182;2022-12-07T09:17:59;5.28;;;2.00;;
75021;SDS011;63583;49.976;20.182;2022-12-07T09:20:24;1.77;;;1.15;;
75021;SDS011;63583;49.976;20.182;2022-12-07T09:23:00;3.72;;;2.30;;
75021;SDS011;63583;49.976;20.182;2022-12-07T09:25:26;5.85;;;2.13;;
75021;SDS011;63583;49.976;20.182;2022-12-07T09:27:56;5.35;;;2.13;;
75021;SDS011;63583;49.976;20.182;2022-12-07T09:30:22;1.77;;;1.23;;
75021;SDS011;63583;49.976;20.182;2022-12-07T09:32:48;3.15;;;1.50;;
75021;SDS011;63583;49.976;20.182;2022-12-07T09:35:14;2.42;;;1.35;;
75021;SDS011;63583;49.976;20.182;2022-12-07T09:37:40;4.40;;;1.98;;
75021;SDS011;63583;49.976;20.182;2022-12-07T09:40:06;3.38;;;2.20;;
75021;SDS011;63583;49.976;20.182;2022-12-07T09:42:34;3.42;;;1.40;;
75021;SDS011;63583;49.976;20.182;2022-12-07T09:45:04;2.60;;;1.95;;
75021;SDS011;63583;49.976;20.182;2022-12-07T09:47:32;3.13;;;2.03;;
75021;SDS011;63583;49.976;20.182;2022-12-07T09:50:15;3.45;;;1.63;;
75021;SDS011;63583;49.976;20.182;2022-12-07T09:52:44;3.55;;;1.75;;
75021;SDS011;63583;49.976;20.182;2022-12-07T09:55:14;3.55;;;0.88;;
75021;SDS011;63583;49.976;20.182;2022-12-07T09:57:42;1.75;;;1.38;;
75021;SDS011;63583;49.976;20.182;2022-12-07T10:00:12;4.15;;;1.83;;
75021;SDS011;63583;49.976;20.182;2022-12-07T10:02:41;2.35;;;1.20;;
75021;SDS011;63583;49.976;20.182;2022-12-07T10:05:12;4.53;;;1.67;;
75021;SDS011;63583;49.976;20.182;2022-12-07T10:07:41;3.55;;;1.77;;
75021;SDS011;63583;49.976;20.182;2022-12-07T10:10:13;3.78;;;2.20;;
75021;SDS011;63583;49.976;20.182;2022-12-07T10:12:52;6.63;;;2.53;;
75021;SDS011;63583;49.976;20.182;2022-12-07T10:15:19;4.13;;;1.67;;
75021;SDS011;63583;49.976;20.182;2022-12-07T10:17:49;2.65;;;1.42;;
75021;SDS011;63583;49.976;20.182;2022-12-07T10:23:03;4.93;;;1.70;;
75021;SDS011;63583;49.976;20.182;2022-12-07T10:25:39;5.88;;;2.10;;
75021;SDS011;63583;49.976;20.182;2022-12-07T10:28:16;4.60;;;1.83;;
75021;SDS011;63583;49.976;20.182;2022-12-07T10:33:40;4.55;;;1.65;;
75021;SDS011;63583;49.976;20.182;2022-12-07T10:36:17;3.35;;;1.80;;
75021;SDS011;63583;49.976;20.182;2022-12-07T10:38:51;3.05;;;2.20;;
75021;SDS011;63583;49.976;20.182;2022-12-07T10:41:17;3.38;;;2.15;;
75021;SDS011;63583;49.976;20.182;2022-12-07T10:43:48;3.53;;;2.28;;
75021;SDS011;63583;49.976;20.182;2022-12-07T10:48:51;3.33;;;1.45;;
75021;SDS011;63583;49.976;20.182;2022-12-07T10:57:04;7.13;;;2.80;;
75021;SDS011;63583;49.976;20.182;2022-12-07T10:59:47;2.88;;;1.73;;
75021;SDS011;63583;49.976;20.182;2022-12-07T11:21:59;16.13;;;8.25;;
75021;SDS011;63583;49.976;20.182;2022-12-07T11:24:40;14.23;;;7.90;;
75021;SDS011;63583;49.976;20.182;2022-12-07T11:30:20;2.83;;;2.20;;
75021;SDS011;63583;49.976;20.182;2022-12-07T11:32:53;2.30;;;1.63;;
75021;SDS011;63583;49.976;20.182;2022-12-07T11:38:15;1.95;;;1.40;;
75021;SDS011;63583;49.976;20.182;2022-12-07T11:40:43;3.88;;;2.00;;
75021;SDS011;63583;49.976;20.182;2022-12-07T11:43:27;3.85;;;2.40;;
75021;SDS011;63583;49.976;20.182;2022-12-07T11:45:59;5.72;;;2.38;;
75021;SDS011;63583;49.976;20.182;2022-12-07T11:51:36;6.68;;;2.97;;
75021;SDS011;63583;49.976;20.182;2022-12-07T11:54:14;3.90;;;2.30;;
75021;SDS011;63583;49.976;20.182;2022-12-07T11:56:46;2.60;;;1.67;;
75021;SDS011;63583;49.976;20.182;2022-12-07T11:59:27;2.80;;;1.63;;
75021;SDS011;63583;49.976;20.182;2022-12-07T12:04:54;4.15;;;1.55;;
75021;SDS011;63583;49.976;20.182;2022-12-07T12:07:27;5.22;;;2.17;;
75021;SDS011;63583;49.976;20.182;2022-12-07T12:09:54;3.55;;;2.17;;
75021;SDS011;63583;49.976;20.182;2022-12-07T12:15:35;4.22;;;2.25;;
75021;SDS011;63583;49.976;20.182;2022-12-07T12:18:29;2.70;;;1.50;;
75021;SDS011;63583;49.976;20.182;2022-12-07T12:21:23;4.63;;;1.92;;
75021;SDS011;63583;49.976;20.182;2022-12-07T12:23:56;18.27;;;8.52;;
75021;SDS011;63583;49.976;20.182;2022-12-07T12:26:30;13.18;;;5.97;;
75021;SDS011;63583;49.976;20.182;2022-12-07T12:31:47;19.30;;;8.32;;
75021;SDS011;63583;49.976;20.182;2022-12-07T12:34:41;10.07;;;5.25;;
75021;SDS011;63583;49.976;20.182;2022-12-07T12:55:25;10.50;;;3.83;;
75021;SDS011;63583;49.976;20.182;2022-12-07T13:00:45;8.43;;;3.55;;
75021;SDS011;63583;49.976;20.182;2022-12-07T13:03:29;5.00;;;3.28;;
75021;SDS011;63583;49.976;20.182;2022-12-07T13:08:51;4.68;;;2.47;;
75021;SDS011;63583;49.976;20.182;2022-12-07T13:11:29;3.25;;;2.33;;
75021;SDS011;63583;49.976;20.182;2022-12-07T13:17:02;2.30;;;1.50;;
75021;SDS011;63583;49.976;20.182;2022-12-07T13:25:07;3.55;;;1.88;;
75021;SDS011;63583;49.976;20.182;2022-12-07T13:27:34;11.38;;;6.32;;
75021;SDS011;63583;49.976;20.182;2022-12-07T13:30:03;9.80;;;4.55;;
75021;SDS011;63583;49.976;20.182;2022-12-07T13:32:51;7.70;;;3.70;;
75021;SDS011;63583;49.976;20.182;2022-12-07T13:35:36;6.32;;;3.67;;
75021;SDS011;63583;49.976;20.182;2022-12-07T13:38:14;7.93;;;3.50;;
75021;SDS011;63583;49.976;20.182;2022-12-07T13:43:52;7.25;;;2.60;;
75021;SDS011;63583;49.976;20.182;2022-12-07T13:46:19;4.97;;;2.17;;
75021;SDS011;63583;49.976;20.182;2022-12-07T13:48:55;3.25;;;1.77;;
75021;SDS011;63583;49.976;20.182;2022-12-07T13:51:23;3.30;;;2.00;;
75021;SDS011;63583;49.976;20.182;2022-12-07T13:53:52;3.20;;;2.15;;
75021;SDS011;63583;49.976;20.182;2022-12-07T13:58:52;3.60;;;2.28;;
75021;SDS011;63583;49.976;20.182;2022-12-07T14:01:18;3.95;;;2.00;;
75021;SDS011;63583;49.976;20.182;2022-12-07T14:03:44;3.35;;;2.08;;
75021;SDS011;63583;49.976;20.182;2022-12-07T14:06:18;4.28;;;2.05;;
75021;SDS011;63583;49.976;20.182;2022-12-07T14:08:47;6.53;;;2.50;;
75021;SDS011;63583;49.976;20.182;2022-12-07T14:11:22;3.78;;;2.00;;
75021;SDS011;63583;49.976;20.182;2022-12-07T14:13:58;2.85;;;1.85;;
75021;SDS011;63583;49.976;20.182;2022-12-07T14:16:30;4.43;;;1.60;;
75021;SDS011;63583;49.976;20.182;2022-12-07T14:19:01;2.10;;;1.30;;
75021;SDS011;63583;49.976;20.182;2022-12-07T14:21:31;6.82;;;3.20;;
75021;SDS011;63583;49.976;20.182;2022-12-07T14:24:17;7.38;;;4.22;;
75021;SDS011;63583;49.976;20.182;2022-12-07T14:26:45;8.25;;;3.72;;
75021;SDS011;63583;49.976;20.182;2022-12-07T14:29:20;7.53;;;3.53;;
75021;SDS011;63583;49.976;20.182;2022-12-07T14:31:47;11.10;;;3.80;;
75021;SDS011;63583;49.976;20.182;2022-12-07T14:34:13;6.72;;;4.00;;
75021;SDS011;63583;49.976;20.182;2022-12-07T14:36:39;11.95;;;4.75;;
75021;SDS011;63583;49.976;20.182;2022-12-07T14:39:05;8.45;;;4.00;;
75021;SDS011;63583;49.976;20.182;2022-12-07T14:41:31;10.15;;;4.20;;
75021;SDS011;63583;49.976;20.182;2022-12-07T14:44:15;6.45;;;2.75;;
75021;SDS011;63583;49.976;20.182;2022-12-07T14:46:42;12.55;;;3.13;;
75021;SDS011;63583;49.976;20.182;2022-12-07T14:49:08;10.02;;;3.42;;
75021;SDS011;63583;49.976;20.182;2022-12-07T14:51:34;8.07;;;3.90;;
75021;SDS011;63583;49.976;20.182;2022-12-07T14:54:03;5.20;;;3.30;;
75021;SDS011;63583;49.976;20.182;2022-12-07T14:56:30;5.97;;;3.15;;
75021;SDS011;63583;49.976;20.182;2022-12-07T14:58:56;8.07;;;2.92;;
75021;SDS011;63583;49.976;20.182;2022-12-07T15:01:23;7.20;;;3.15;;
75021;SDS011;63583;49.976;20.182;2022-12-07T15:03:48;3.15;;;2.13;;
75021;SDS011;63583;49.976;20.182;2022-12-07T15:06:15;3.47;;;2.53;;
75021;SDS011;63583;49.976;20.182;2022-12-07T15:08:42;9.65;;;2.17;;
75021;SDS011;63583;49.976;20.182;2022-12-07T15:11:18;4.55;;;3.03;;
75021;SDS011;63583;49.976;20.182;2022-12-07T15:13:44;4.38;;;2.55;;
75021;SDS011;63583;49.976;20.182;2022-12-07T15:16:28;5.13;;;2.55;;
75021;SDS011;63583;49.976;20.182;2022-12-07T15:18:54;5.35;;;1.80;;
75021;SDS011;63583;49.976;20.182;2022-12-07T15:21:20;8.00;;;2.40;;
75021;SDS011;63583;49.976;20.182;2022-12-07T15:23:46;8.52;;;4.07;;
75021;SDS011;63583;49.976;20.182;2022-12-07T15:26:12;9.93;;;3.55;;
75021;SDS011;63583;49.976;20.182;2022-12-07T15:28:39;10.10;;;5.20;;
75021;SDS011;63583;49.976;20.182;2022-12-07T15:31:12;20.92;;;6.32;;
75021;SDS011;63583;49.976;20.182;2022-12-07T15:33:42;14.00;;;7.60;;
75021;SDS011;63583;49.976;20.182;2022-12-07T15:36:20;20.88;;;8.25;;
75021;SDS011;63583;49.976;20.182;2022-12-07T15:38:48;6.88;;;3.70;;
75021;SDS011;63583;49.976;20.182;2022-12-07T15:41:14;15.05;;;5.10;;
75021;SDS011;63583;49.976;20.182;2022-12-07T15:43:40;11.15;;;4.40;;
75021;SDS011;63583;49.976;20.182;2022-12-07T15:46:43;10.18;;;3.72;;
75021;SDS011;63583;49.976;20.182;2022-12-07T15:49:13;5.32;;;2.67;;
75021;SDS011;63583;49.976;20.182;2022-12-07T15:51:44;4.90;;;2.70;;
75021;SDS011;63583;49.976;20.182;2022-12-07T15:54:12;8.05;;;4.22;;
75021;SDS011;63583;49.976;20.182;2022-12-07T15:56:42;7.15;;;3.42;;
75021;SDS011;63583;49.976;20.182;2022-12-07T15:59:07;21.17;;;8.57;;
75021;SDS011;63583;49.976;20.182;2022-12-07T16:01:33;12.57;;;4.28;;
75021;SDS011;63583;49.976;20.182;2022-12-07T16:03:59;7.15;;;2.60;;
75021;SDS011;63583;49.976;20.182;2022-12-07T16:06:25;7.07;;;4.45;;
75021;SDS011;63583;49.976;20.182;2022-12-07T16:08:50;8.60;;;3.20;;
75021;SDS011;63583;49.976;20.182;2022-12-07T16:11:17;6.03;;;3.47;;
75021;SDS011;63583;49.976;20.182;2022-12-07T16:13:59;4.43;;;2.67;;
75021;SDS011;63583;49.976;20.182;2022-12-07T16:16:25;3.53;;;2.38;;
75021;SDS011;63583;49.976;20.182;2022-12-07T16:18:51;3.92;;;2.90;;
75021;SDS011;63583;49.976;20.182;2022-12-07T16:21:17;6.10;;;2.30;;
75021;SDS011;63583;49.976;20.182;2022-12-07T16:23:47;7.78;;;3.95;;
75021;SDS011;63583;49.976;20.182;2022-12-07T16:26:14;6.30;;;4.38;;
75021;SDS011;63583;49.976;20.182;2022-12-07T16:28:44;6.38;;;3.42;;
75021;SDS011;63583;49.976;20.182;2022-12-07T16:31:14;12.95;;;4.28;;
75021;SDS011;63583;49.976;20.182;2022-12-07T16:33:42;10.98;;;5.38;;
75021;SDS011;63583;49.976;20.182;2022-12-07T16:36:09;8.32;;;4.80;;
75021;SDS011;63583;49.976;20.182;2022-12-07T16:38:36;12.63;;;5.57;;
75021;SDS011;63583;49.976;20.182;2022-12-07T16:41:03;6.07;;;3.85;;
75021;SDS011;63583;49.976;20.182;2022-12-07T16:45:58;6.68;;;3.95;;
75021;SDS011;63583;49.976;20.182;2022-12-07T16:48:24;8.15;;;3.92;;
75021;SDS011;63583;49.976;20.182;2022-12-07T16:50:50;7.22;;;2.83;;
75021;SDS011;63583;49.976;20.182;2022-12-07T16:53:18;8.38;;;4.00;;